sensor_id;sensor_type;location;lat;lon;timestamp;temperature;humidity
1075;DHT22;526;51.392;12.448;2022-10-30T00:00:33;13.40;97.30
1075;DHT22;526;51.392;12.448;2022-10-30T00:02:58;13.30;97.30
1075;DHT22;526;51.392;12.448;2022-10-30T00:05:25;13.30;97.30
1075;DHT22;526;51.392;12.448;2022-10-30T00:07:51;13.20;97.30
1075;DHT22;526;51.392;12.448;2022-10-30T00:10:18;13.20;97.30
1075;DHT22;526;51.392;12.448;2022-10-30T00:12:44;13.10;97.30
1075;DHT22;526;51.392;12.448;2022-10-30T00:15:10;13.10;97.30
1075;DHT22;526;51.392;12.448;2022-10-30T00:17:36;13.10;97.30
1075;DHT22;526;51.392;12.448;2022-10-30T00:20:02;13.00;97.30
1075;DHT22;526;51.392;12.448;2022-10-30T00:22:28;13.00;97.30
1075;DHT22;526;51.392;12.448;2022-10-30T00:24:53;12.90;97.30
1075;DHT22;526;51.392;12.448;2022-10-30T00:27:19;12.90;97.30
1075;DHT22;526;51.392;12.448;2022-10-30T00:29:44;12.90;97.30
1075;DHT22;526;51.392;12.448;2022-10-30T00:32:10;12.80;97.30
1075;DHT22;526;51.392;12.448;2022-10-30T00:34:35;12.80;97.30
1075;DHT22;526;51.392;12.448;2022-10-30T00:37:01;12.70;97.30
1075;DHT22;526;51.392;12.448;2022-10-30T00:39:26;12.70;97.30
1075;DHT22;526;51.392;12.448;2022-10-30T00:41:52;12.60;97.30
1075;DHT22;526;51.392;12.448;2022-10-30T00:44:41;12.50;97.30
1075;DHT22;526;51.392;12.448;2022-10-30T00:47:17;12.50;97.30
1075;DHT22;526;51.392;12.448;2022-10-30T00:52:15;12.50;97.30
1075;DHT22;526;51.392;12.448;2022-10-30T00:54:41;12.50;97.30
1075;DHT22;526;51.392;12.448;2022-10-30T00:57:08;12.50;97.30
1075;DHT22;526;51.392;12.448;2022-10-30T00:59:34;12.50;97.30
1075;DHT22;526;51.392;12.448;2022-10-30T01:02:02;12.40;97.30
1075;DHT22;526;51.392;12.448;2022-10-30T01:04:29;12.40;97.30
1075;DHT22;526;51.392;12.448;2022-10-30T01:06:56;12.40;97.30
1075;DHT22;526;51.392;12.448;2022-10-30T01:09:22;12.40;97.30
1075;DHT22;526;51.392;12.448;2022-10-30T01:11:48;12.40;97.30
1075;DHT22;526;51.392;12.448;2022-10-30T01:14:17;12.40;97.30
1075;DHT22;526;51.392;12.448;2022-10-30T01:16:51;12.30;97.30
1075;DHT22;526;51.392;12.448;2022-10-30T01:34:16;12.30;97.30
1075;DHT22;526;51.392;12.448;2022-10-30T01:39:25;12.30;97.30
1075;DHT22;526;51.392;12.448;2022-10-30T01:41:52;12.30;97.30
1075;DHT22;526;51.392;12.448;2022-10-30T01:44:22;12.20;97.30
1075;DHT22;526;51.392;12.448;2022-10-30T01:46:53;12.20;97.30
1075;DHT22;526;51.392;12.448;2022-10-30T01:52:26;12.10;97.30
1075;DHT22;526;51.392;12.448;2022-10-30T02:00:11;12.30;97.30
1075;DHT22;526;51.392;12.448;2022-10-30T02:02:37;12.30;97.30
1075;DHT22;526;51.392;12.448;2022-10-30T02:05:05;12.30;97.30
1075;DHT22;526;51.392;12.448;2022-10-30T02:07:31;12.40;97.30
1075;DHT22;526;51.392;12.448;2022-10-30T02:09:56;12.50;97.30
1075;DHT22;526;51.392;12.448;2022-10-30T02:12:22;12.50;97.30
1075;DHT22;526;51.392;12.448;2022-10-30T02:14:51;12.50;97.30
1075;DHT22;526;51.392;12.448;2022-10-30T02:17:19;12.50;97.30
1075;DHT22;526;51.392;12.448;2022-10-30T02:19:45;12.60;97.30
1075;DHT22;526;51.392;12.448;2022-10-30T02:22:10;12.60;97.30
1075;DHT22;526;51.392;12.448;2022-10-30T02:24:36;12.60;97.30
1075;DHT22;526;51.392;12.448;2022-10-30T02:27:02;12.60;97.30
1075;DHT22;526;51.392;12.448;2022-10-30T02:29:28;12.60;97.30
1075;DHT22;526;51.392;12.448;2022-10-30T02:31:54;12.60;97.30
1075;DHT22;526;51.392;12.448;2022-10-30T02:34:19;12.60;97.30
1075;DHT22;526;51.392;12.448;2022-10-30T02:36:45;12.60;97.30
1075;DHT22;526;51.392;12.448;2022-10-30T02:39:11;12.60;97.30
1075;DHT22;526;51.392;12.448;2022-10-30T02:41:36;12.60;97.30
1075;DHT22;526;51.392;12.448;2022-10-30T02:44:02;12.60;97.30
1075;DHT22;526;51.392;12.448;2022-10-30T02:46:28;12.60;97.30
1075;DHT22;526;51.392;12.448;2022-10-30T02:48:53;12.60;97.30
1075;DHT22;526;51.392;12.448;2022-10-30T02:51:19;12.50;97.30
1075;DHT22;526;51.392;12.448;2022-10-30T02:53:44;12.50;97.30
1075;DHT22;526;51.392;12.448;2022-10-30T02:56:12;12.50;97.30
1075;DHT22;526;51.392;12.448;2022-10-30T02:58:39;12.50;97.30
1075;DHT22;526;51.392;12.448;2022-10-30T03:01:07;12.40;97.30
1075;DHT22;526;51.392;12.448;2022-10-30T03:03:32;12.50;97.30
1075;DHT22;526;51.392;12.448;2022-10-30T03:06:03;12.50;97.30
1075;DHT22;526;51.392;12.448;2022-10-30T03:08:29;12.60;97.30
1075;DHT22;526;51.392;12.448;2022-10-30T03:11:06;12.60;97.30
1075;DHT22;526;51.392;12.448;2022-10-30T03:13:32;12.70;97.30
1075;DHT22;526;51.392;12.448;2022-10-30T03:16:03;12.70;97.30
1075;DHT22;526;51.392;12.448;2022-10-30T03:18:29;12.80;97.30
1075;DHT22;526;51.392;12.448;2022-10-30T03:21:00;12.80;97.30
1075;DHT22;526;51.392;12.448;2022-10-30T03:23:27;12.90;97.30
1075;DHT22;526;51.392;12.448;2022-10-30T03:25:57;12.90;97.30
1075;DHT22;526;51.392;12.448;2022-10-30T03:28:25;13.00;97.30
1075;DHT22;526;51.392;12.448;2022-10-30T03:30:56;13.00;97.30
1075;DHT22;526;51.392;12.448;2022-10-30T03:33:22;13.00;97.30
1075;DHT22;526;51.392;12.448;2022-10-30T03:35:48;13.00;97.30
1075;DHT22;526;51.392;12.448;2022-10-30T03:38:13;13.00;97.30
1075;DHT22;526;51.392;12.448;2022-10-30T03:40:39;13.00;97.30
1075;DHT22;526;51.392;12.448;2022-10-30T03:43:05;13.00;97.30
1075;DHT22;526;51.392;12.448;2022-10-30T03:45:31;12.90;97.30
1075;DHT22;526;51.392;12.448;2022-10-30T03:47:59;12.90;97.30
1075;DHT22;526;51.392;12.448;2022-10-30T03:50:25;12.80;97.30
1075;DHT22;526;51.392;12.448;2022-10-30T03:52:53;12.80;97.30
1075;DHT22;526;51.392;12.448;2022-10-30T03:55:19;12.80;97.30
1075;DHT22;526;51.392;12.448;2022-10-30T03:57:44;12.80;97.30
1075;DHT22;526;51.392;12.448;2022-10-30T04:00:10;12.70;97.30
1075;DHT22;526;51.392;12.448;2022-10-30T04:02:36;12.70;97.30
1075;DHT22;526;51.392;12.448;2022-10-30T04:05:02;12.70;97.30
1075;DHT22;526;51.392;12.448;2022-10-30T04:07:27;12.70;97.30
1075;DHT22;526;51.392;12.448;2022-10-30T04:09:54;12.70;97.30
1075;DHT22;526;51.392;12.448;2022-10-30T04:12:19;12.70;97.30
1075;DHT22;526;51.392;12.448;2022-10-30T04:14:45;12.70;97.30
1075;DHT22;526;51.392;12.448;2022-10-30T04:17:10;12.70;97.30
1075;DHT22;526;51.392;12.448;2022-10-30T04:19:36;12.70;97.30
1075;DHT22;526;51.392;12.448;2022-10-30T04:22:01;12.70;97.30
1075;DHT22;526;51.392;12.448;2022-10-30T04:24:27;12.70;97.30
1075;DHT22;526;51.392;12.448;2022-10-30T04:26:52;12.70;97.30
1075;DHT22;526;51.392;12.448;2022-10-30T04:29:18;12.70;97.30
1075;DHT22;526;51.392;12.448;2022-10-30T04:31:43;12.60;97.30
1075;DHT22;526;51.392;12.448;2022-10-30T04:34:09;12.70;97.30
1075;DHT22;526;51.392;12.448;2022-10-30T04:36:36;12.70;97.30
1075;DHT22;526;51.392;12.448;2022-10-30T04:39:02;12.70;97.30
1075;DHT22;526;51.392;12.448;2022-10-30T04:41:27;12.70;97.30
1075;DHT22;526;51.392;12.448;2022-10-30T04:43:53;12.70;97.30
1075;DHT22;526;51.392;12.448;2022-10-30T04:46:18;12.80;97.30
1075;DHT22;526;51.392;12.448;2022-10-30T04:48:44;12.80;97.30
1075;DHT22;526;51.392;12.448;2022-10-30T04:51:10;12.80;97.30
1075;DHT22;526;51.392;12.448;2022-10-30T04:53:39;12.70;97.30
1075;DHT22;526;51.392;12.448;2022-10-30T04:56:05;12.70;97.30
1075;DHT22;526;51.392;12.448;2022-10-30T04:58:30;12.70;97.30
1075;DHT22;526;51.392;12.448;2022-10-30T05:01:03;12.60;97.30
1075;DHT22;526;51.392;12.448;2022-10-30T05:03:29;12.60;97.30
1075;DHT22;526;51.392;12.448;2022-10-30T05:08:28;12.60;97.30
1075;DHT22;526;51.392;12.448;2022-10-30T05:10:55;12.60;97.30
1075;DHT22;526;51.392;12.448;2022-10-30T05:13:21;12.60;97.30
1075;DHT22;526;51.392;12.448;2022-10-30T05:15:46;12.60;97.30
1075;DHT22;526;51.392;12.448;2022-10-30T05:18:12;12.60;97.30
1075;DHT22;526;51.392;12.448;2022-10-30T05:20:37;12.60;97.30
1075;DHT22;526;51.392;12.448;2022-10-30T05:23:03;12.60;97.30
1075;DHT22;526;51.392;12.448;2022-10-30T05:25:29;12.60;97.30
1075;DHT22;526;51.392;12.448;2022-10-30T05:27:59;12.60;97.30
1075;DHT22;526;51.392;12.448;2022-10-30T05:30:29;12.60;97.30
1075;DHT22;526;51.392;12.448;2022-10-30T05:33:05;12.60;97.30
1075;DHT22;526;51.392;12.448;2022-10-30T05:35:32;12.60;97.30
1075;DHT22;526;51.392;12.448;2022-10-30T05:38:00;12.60;97.30
1075;DHT22;526;51.392;12.448;2022-10-30T05:40:28;12.60;97.30
1075;DHT22;526;51.392;12.448;2022-10-30T05:42:57;12.60;97.30
1075;DHT22;526;51.392;12.448;2022-10-30T05:45:23;12.60;97.30
1075;DHT22;526;51.392;12.448;2022-10-30T05:48:02;12.60;97.30
1075;DHT22;526;51.392;12.448;2022-10-30T05:50:28;12.60;97.30
1075;DHT22;526;51.392;12.448;2022-10-30T05:52:58;12.60;97.30
1075;DHT22;526;51.392;12.448;2022-10-30T05:55:25;12.60;97.30
1075;DHT22;526;51.392;12.448;2022-10-30T05:57:59;12.60;97.30
1075;DHT22;526;51.392;12.448;2022-10-30T06:00:26;12.60;97.30
1075;DHT22;526;51.392;12.448;2022-10-30T06:02:57;12.60;97.30
1075;DHT22;526;51.392;12.448;2022-10-30T06:05:23;12.70;97.30
1075;DHT22;526;51.392;12.448;2022-10-30T06:07:48;12.80;97.30
1075;DHT22;526;51.392;12.448;2022-10-30T06:10:14;13.00;97.30
1075;DHT22;526;51.392;12.448;2022-10-30T06:12:40;13.00;97.30
1075;DHT22;526;51.392;12.448;2022-10-30T06:15:05;13.00;97.30
1075;DHT22;526;51.392;12.448;2022-10-30T06:17:31;13.00;97.30
1075;DHT22;526;51.392;12.448;2022-10-30T06:19:59;13.00;97.30
1075;DHT22;526;51.392;12.448;2022-10-30T06:22:24;13.00;97.30
1075;DHT22;526;51.392;12.448;2022-10-30T06:24:50;13.00;97.30
1075;DHT22;526;51.392;12.448;2022-10-30T06:27:15;13.00;97.30
1075;DHT22;526;51.392;12.448;2022-10-30T06:29:41;13.00;97.30
1075;DHT22;526;51.392;12.448;2022-10-30T06:32:07;12.90;97.30
1075;DHT22;526;51.392;12.448;2022-10-30T06:34:33;12.90;97.30
1075;DHT22;526;51.392;12.448;2022-10-30T06:36:58;12.90;97.30
1075;DHT22;526;51.392;12.448;2022-10-30T06:39:24;12.90;97.30
1075;DHT22;526;51.392;12.448;2022-10-30T06:41:51;13.00;97.30
1075;DHT22;526;51.392;12.448;2022-10-30T06:44:19;13.00;97.30
1075;DHT22;526;51.392;12.448;2022-10-30T06:46:45;13.00;97.30
1075;DHT22;526;51.392;12.448;2022-10-30T06:49:10;12.90;97.30
1075;DHT22;526;51.392;12.448;2022-10-30T06:51:36;12.90;97.30
1075;DHT22;526;51.392;12.448;2022-10-30T06:54:02;12.90;97.30
1075;DHT22;526;51.392;12.448;2022-10-30T06:56:27;13.00;97.30
1075;DHT22;526;51.392;12.448;2022-10-30T06:58:53;13.00;97.30
1075;DHT22;526;51.392;12.448;2022-10-30T07:01:19;13.10;97.30
1075;DHT22;526;51.392;12.448;2022-10-30T07:03:44;13.10;97.30
1075;DHT22;526;51.392;12.448;2022-10-30T07:06:10;13.20;97.30
1075;DHT22;526;51.392;12.448;2022-10-30T07:08:35;13.30;97.30
1075;DHT22;526;51.392;12.448;2022-10-30T07:11:01;13.40;97.30
1075;DHT22;526;51.392;12.448;2022-10-30T07:13:26;13.60;97.30
1075;DHT22;526;51.392;12.448;2022-10-30T07:15:52;13.60;97.30
1075;DHT22;526;51.392;12.448;2022-10-30T07:18:19;13.80;97.30
1075;DHT22;526;51.392;12.448;2022-10-30T07:20:45;13.90;97.30
1075;DHT22;526;51.392;12.448;2022-10-30T07:23:11;14.00;97.30
1075;DHT22;526;51.392;12.448;2022-10-30T07:25:36;14.00;97.30
1075;DHT22;526;51.392;12.448;2022-10-30T07:28:02;14.00;97.30
1075;DHT22;526;51.392;12.448;2022-10-30T07:30:28;14.10;97.30
1075;DHT22;526;51.392;12.448;2022-10-30T07:33:04;14.20;97.30
1075;DHT22;526;51.392;12.448;2022-10-30T07:35:31;14.30;97.30
1075;DHT22;526;51.392;12.448;2022-10-30T07:38:04;14.40;97.30
1075;DHT22;526;51.392;12.448;2022-10-30T07:40:30;14.50;97.30
1075;DHT22;526;51.392;12.448;2022-10-30T07:42:56;14.60;97.30
1075;DHT22;526;51.392;12.448;2022-10-30T07:45:22;14.70;97.30
1075;DHT22;526;51.392;12.448;2022-10-30T07:47:48;14.80;97.30
1075;DHT22;526;51.392;12.448;2022-10-30T07:50:13;14.80;97.30
1075;DHT22;526;51.392;12.448;2022-10-30T07:52:39;14.90;97.30
1075;DHT22;526;51.392;12.448;2022-10-30T07:55:05;15.00;97.30
1075;DHT22;526;51.392;12.448;2022-10-30T07:57:37;15.20;97.30
1075;DHT22;526;51.392;12.448;2022-10-30T08:00:08;15.30;97.30
1075;DHT22;526;51.392;12.448;2022-10-30T08:02:35;15.50;97.30
1075;DHT22;526;51.392;12.448;2022-10-30T08:05:01;15.70;97.30
1075;DHT22;526;51.392;12.448;2022-10-30T08:07:34;15.90;97.30
1075;DHT22;526;51.392;12.448;2022-10-30T08:10:00;16.00;97.30
1075;DHT22;526;51.392;12.448;2022-10-30T08:12:26;16.20;97.30
1075;DHT22;526;51.392;12.448;2022-10-30T08:14:52;16.40;97.30
1075;DHT22;526;51.392;12.448;2022-10-30T08:17:18;16.50;97.30
1075;DHT22;526;51.392;12.448;2022-10-30T08:19:43;16.70;97.30
1075;DHT22;526;51.392;12.448;2022-10-30T08:22:10;16.80;97.30
1075;DHT22;526;51.392;12.448;2022-10-30T08:24:38;16.80;97.30
1075;DHT22;526;51.392;12.448;2022-10-30T08:27:04;16.90;97.30
1075;DHT22;526;51.392;12.448;2022-10-30T08:29:30;16.90;97.30
1075;DHT22;526;51.392;12.448;2022-10-30T08:31:56;16.90;97.30
1075;DHT22;526;51.392;12.448;2022-10-30T08:34:22;16.90;97.30
1075;DHT22;526;51.392;12.448;2022-10-30T08:36:49;16.90;97.30
1075;DHT22;526;51.392;12.448;2022-10-30T08:39:16;17.00;97.30
1075;DHT22;526;51.392;12.448;2022-10-30T08:41:42;17.10;97.30
1075;DHT22;526;51.392;12.448;2022-10-30T08:44:08;17.20;97.30
1075;DHT22;526;51.392;12.448;2022-10-30T08:46:33;17.20;97.30
1075;DHT22;526;51.392;12.448;2022-10-30T08:48:59;17.30;97.30
1075;DHT22;526;51.392;12.448;2022-10-30T08:51:25;17.40;97.30
1075;DHT22;526;51.392;12.448;2022-10-30T08:53:51;17.50;97.30
1075;DHT22;526;51.392;12.448;2022-10-30T08:56:17;17.60;97.30
1075;DHT22;526;51.392;12.448;2022-10-30T08:58:42;17.70;97.30
1075;DHT22;526;51.392;12.448;2022-10-30T09:01:08;17.80;97.30
1075;DHT22;526;51.392;12.448;2022-10-30T09:03:34;18.00;97.30
1075;DHT22;526;51.392;12.448;2022-10-30T09:06:00;18.10;97.30
1075;DHT22;526;51.392;12.448;2022-10-30T09:08:26;18.20;97.30
1075;DHT22;526;51.392;12.448;2022-10-30T09:10:56;18.30;97.30
1075;DHT22;526;51.392;12.448;2022-10-30T09:13:23;18.40;97.30
1075;DHT22;526;51.392;12.448;2022-10-30T09:15:49;18.50;97.30
1075;DHT22;526;51.392;12.448;2022-10-30T09:18:14;18.60;97.30
1075;DHT22;526;51.392;12.448;2022-10-30T09:20:40;18.70;97.30
1075;DHT22;526;51.392;12.448;2022-10-30T09:23:06;18.80;97.30
1075;DHT22;526;51.392;12.448;2022-10-30T09:25:31;18.90;97.30
1075;DHT22;526;51.392;12.448;2022-10-30T09:27:57;19.00;97.30
1075;DHT22;526;51.392;12.448;2022-10-30T09:30:22;19.20;97.30
1075;DHT22;526;51.392;12.448;2022-10-30T09:32:59;19.30;97.30
1075;DHT22;526;51.392;12.448;2022-10-30T09:35:26;19.40;97.30
1075;DHT22;526;51.392;12.448;2022-10-30T09:37:52;19.60;97.30
1075;DHT22;526;51.392;12.448;2022-10-30T09:51:53;20.20;97.00
1075;DHT22;526;51.392;12.448;2022-10-30T09:57:32;20.50;96.60
1075;DHT22;526;51.392;12.448;2022-10-30T10:00:12;20.60;96.00
1075;DHT22;526;51.392;12.448;2022-10-30T10:02:56;20.70;95.90
1075;DHT22;526;51.392;12.448;2022-10-30T10:05:41;20.80;96.20
1075;DHT22;526;51.392;12.448;2022-10-30T10:08:16;20.90;95.70
1075;DHT22;526;51.392;12.448;2022-10-30T10:10:51;21.00;94.90
1075;DHT22;526;51.392;12.448;2022-10-30T10:13:37;21.10;95.30
1075;DHT22;526;51.392;12.448;2022-10-30T10:16:42;21.20;94.10
1075;DHT22;526;51.392;12.448;2022-10-30T10:19:31;21.40;94.10
1075;DHT22;526;51.392;12.448;2022-10-30T10:22:02;21.50;94.10
1075;DHT22;526;51.392;12.448;2022-10-30T10:24:33;21.60;93.80
1075;DHT22;526;51.392;12.448;2022-10-30T10:27:08;21.70;93.70
1075;DHT22;526;51.392;12.448;2022-10-30T10:29:58;21.90;93.70
1075;DHT22;526;51.392;12.448;2022-10-30T10:35:53;22.20;92.20
1075;DHT22;526;51.392;12.448;2022-10-30T10:38:50;22.30;91.40
1075;DHT22;526;51.392;12.448;2022-10-30T10:41:48;22.40;91.10
1075;DHT22;526;51.392;12.448;2022-10-30T10:49:27;22.70;90.80
1075;DHT22;526;51.392;12.448;2022-10-30T10:51:59;22.80;90.90
1075;DHT22;526;51.392;12.448;2022-10-30T10:54:39;22.90;90.50
1075;DHT22;526;51.392;12.448;2022-10-30T10:57:06;23.00;90.40
1075;DHT22;526;51.392;12.448;2022-10-30T10:59:41;23.10;88.00
1075;DHT22;526;51.392;12.448;2022-10-30T11:04:43;23.20;87.30
1075;DHT22;526;51.392;12.448;2022-10-30T11:07:21;23.30;88.90
1075;DHT22;526;51.392;12.448;2022-10-30T11:09:52;23.40;88.80
1075;DHT22;526;51.392;12.448;2022-10-30T11:12:24;23.50;88.10
1075;DHT22;526;51.392;12.448;2022-10-30T11:14:51;23.50;88.50
1075;DHT22;526;51.392;12.448;2022-10-30T11:17:30;23.50;88.80
1075;DHT22;526;51.392;12.448;2022-10-30T11:20:00;23.40;88.90
1075;DHT22;526;51.392;12.448;2022-10-30T11:22:33;23.30;89.30
1075;DHT22;526;51.392;12.448;2022-10-30T11:25:23;23.30;88.40
1075;DHT22;526;51.392;12.448;2022-10-30T11:28:00;23.40;88.40
1075;DHT22;526;51.392;12.448;2022-10-30T11:30:28;23.60;87.80
1075;DHT22;526;51.392;12.448;2022-10-30T11:32:55;23.80;87.30
1075;DHT22;526;51.392;12.448;2022-10-30T11:35:21;23.90;87.10
1075;DHT22;526;51.392;12.448;2022-10-30T11:37:51;24.00;86.80
1075;DHT22;526;51.392;12.448;2022-10-30T11:40:35;24.10;86.00
1075;DHT22;526;51.392;12.448;2022-10-30T11:43:03;24.20;85.20
1075;DHT22;526;51.392;12.448;2022-10-30T11:45:29;24.20;84.40
1075;DHT22;526;51.392;12.448;2022-10-30T11:47:58;24.20;83.80
1075;DHT22;526;51.392;12.448;2022-10-30T11:50:29;24.20;84.80
1075;DHT22;526;51.392;12.448;2022-10-30T11:52:58;24.40;84.10
1075;DHT22;526;51.392;12.448;2022-10-30T11:55:40;24.50;83.80
1075;DHT22;526;51.392;12.448;2022-10-30T11:58:21;24.70;83.20
1075;DHT22;526;51.392;12.448;2022-10-30T12:00:59;24.80;82.10
1075;DHT22;526;51.392;12.448;2022-10-30T12:03:43;24.90;82.30
1075;DHT22;526;51.392;12.448;2022-10-30T12:11:33;25.20;81.00
1075;DHT22;526;51.392;12.448;2022-10-30T12:13:59;25.30;80.90
1075;DHT22;526;51.392;12.448;2022-10-30T12:16:26;25.30;80.80
1075;DHT22;526;51.392;12.448;2022-10-30T12:19:10;25.50;81.10
1075;DHT22;526;51.392;12.448;2022-10-30T12:21:46;25.60;81.80
1075;DHT22;526;51.392;12.448;2022-10-30T12:24:33;25.70;81.10
1075;DHT22;526;51.392;12.448;2022-10-30T12:27:02;25.80;80.10
1075;DHT22;526;51.392;12.448;2022-10-30T12:29:54;25.90;80.10
1075;DHT22;526;51.392;12.448;2022-10-30T12:32:25;26.00;80.20
1075;DHT22;526;51.392;12.448;2022-10-30T12:37:44;26.10;79.60
1075;DHT22;526;51.392;12.448;2022-10-30T12:40:22;26.20;79.60
1075;DHT22;526;51.392;12.448;2022-10-30T12:42:56;26.20;79.40
1075;DHT22;526;51.392;12.448;2022-10-30T12:45:40;26.30;78.50
1075;DHT22;526;51.392;12.448;2022-10-30T12:48:29;26.30;79.20
1075;DHT22;526;51.392;12.448;2022-10-30T12:51:33;26.30;78.70
1075;DHT22;526;51.392;12.448;2022-10-30T12:54:12;26.50;79.50
1075;DHT22;526;51.392;12.448;2022-10-30T12:56:43;26.60;79.60
1075;DHT22;526;51.392;12.448;2022-10-30T13:05:01;26.60;79.40
1075;DHT22;526;51.392;12.448;2022-10-30T13:07:29;26.70;79.70
1075;DHT22;526;51.392;12.448;2022-10-30T13:13:10;26.80;78.90
1075;DHT22;526;51.392;12.448;2022-10-30T13:15:43;26.90;79.40
1075;DHT22;526;51.392;12.448;2022-10-30T13:18:18;27.00;78.70
1075;DHT22;526;51.392;12.448;2022-10-30T13:20:57;27.00;78.50
1075;DHT22;526;51.392;12.448;2022-10-30T13:23:41;26.90;78.60
1075;DHT22;526;51.392;12.448;2022-10-30T13:32:09;27.00;76.40
1075;DHT22;526;51.392;12.448;2022-10-30T13:40:44;27.00;76.70
1075;DHT22;526;51.392;12.448;2022-10-30T13:46:01;27.20;77.60
1075;DHT22;526;51.392;12.448;2022-10-30T13:51:44;27.20;76.60
1075;DHT22;526;51.392;12.448;2022-10-30T13:54:21;27.20;77.10
1075;DHT22;526;51.392;12.448;2022-10-30T13:56:48;27.20;76.70
1075;DHT22;526;51.392;12.448;2022-10-30T13:59:23;27.10;76.70
1075;DHT22;526;51.392;12.448;2022-10-30T14:07:28;27.30;76.70
1075;DHT22;526;51.392;12.448;2022-10-30T14:10:05;27.40;76.00
1075;DHT22;526;51.392;12.448;2022-10-30T14:13:03;27.40;75.70
1075;DHT22;526;51.392;12.448;2022-10-30T14:23:34;27.40;76.70
1075;DHT22;526;51.392;12.448;2022-10-30T14:28:30;27.40;76.80
1075;DHT22;526;51.392;12.448;2022-10-30T14:31:13;27.40;77.00
1075;DHT22;526;51.392;12.448;2022-10-30T14:36:46;27.50;78.00
1075;DHT22;526;51.392;12.448;2022-10-30T14:42:06;27.40;77.40
1075;DHT22;526;51.392;12.448;2022-10-30T14:44:40;27.40;77.80
1075;DHT22;526;51.392;12.448;2022-10-30T14:50:19;27.40;79.10
1075;DHT22;526;51.392;12.448;2022-10-30T14:55:32;27.40;80.00
1075;DHT22;526;51.392;12.448;2022-10-30T15:00:46;27.30;80.40
1075;DHT22;526;51.392;12.448;2022-10-30T15:14:01;26.00;83.50
1075;DHT22;526;51.392;12.448;2022-10-30T15:16:36;25.50;84.60
1075;DHT22;526;51.392;12.448;2022-10-30T15:19:07;25.00;85.10
1075;DHT22;526;51.392;12.448;2022-10-30T15:21:40;24.60;86.10
1075;DHT22;526;51.392;12.448;2022-10-30T15:24:12;24.20;87.20
1075;DHT22;526;51.392;12.448;2022-10-30T15:26:39;23.90;88.00
1075;DHT22;526;51.392;12.448;2022-10-30T15:29:06;23.60;88.50
1075;DHT22;526;51.392;12.448;2022-10-30T15:31:35;23.30;89.40
1075;DHT22;526;51.392;12.448;2022-10-30T15:34:01;23.00;90.00
1075;DHT22;526;51.392;12.448;2022-10-30T15:36:27;22.80;90.60
1075;DHT22;526;51.392;12.448;2022-10-30T15:39:21;22.50;91.30
1075;DHT22;526;51.392;12.448;2022-10-30T15:41:56;22.20;92.10
1075;DHT22;526;51.392;12.448;2022-10-30T15:44:32;21.90;92.60
1075;DHT22;526;51.392;12.448;2022-10-30T15:47:00;21.70;93.10
1075;DHT22;526;51.392;12.448;2022-10-30T15:49:33;21.50;93.70
1075;DHT22;526;51.392;12.448;2022-10-30T15:52:13;21.30;94.00
1075;DHT22;526;51.392;12.448;2022-10-30T15:54:41;21.20;94.60
1075;DHT22;526;51.392;12.448;2022-10-30T15:57:23;20.90;95.10
1075;DHT22;526;51.392;12.448;2022-10-30T15:59:55;20.70;95.40
1075;DHT22;526;51.392;12.448;2022-10-30T16:02:23;20.50;95.50
1075;DHT22;526;51.392;12.448;2022-10-30T16:04:50;20.30;96.20
1075;DHT22;526;51.392;12.448;2022-10-30T16:07:18;20.10;96.50
1075;DHT22;526;51.392;12.448;2022-10-30T16:10:13;20.00;96.80
1075;DHT22;526;51.392;12.448;2022-10-30T16:12:39;19.80;97.20
1075;DHT22;526;51.392;12.448;2022-10-30T16:15:14;19.70;97.30
1075;DHT22;526;51.392;12.448;2022-10-30T16:17:41;19.50;97.30
1075;DHT22;526;51.392;12.448;2022-10-30T16:20:09;19.40;97.30
1075;DHT22;526;51.392;12.448;2022-10-30T16:22:36;19.20;97.30
1075;DHT22;526;51.392;12.448;2022-10-30T16:25:06;19.10;97.30
1075;DHT22;526;51.392;12.448;2022-10-30T16:27:33;19.00;97.30
1075;DHT22;526;51.392;12.448;2022-10-30T16:30:11;18.80;97.30
1075;DHT22;526;51.392;12.448;2022-10-30T16:32:39;18.60;97.30
1075;DHT22;526;51.392;12.448;2022-10-30T16:35:06;18.50;97.30
1075;DHT22;526;51.392;12.448;2022-10-30T16:37:34;18.30;97.30
1075;DHT22;526;51.392;12.448;2022-10-30T16:42:35;18.10;97.30
1075;DHT22;526;51.392;12.448;2022-10-30T16:47:43;17.90;97.30
1075;DHT22;526;51.392;12.448;2022-10-30T16:50:13;17.80;97.30
1075;DHT22;526;51.392;12.448;2022-10-30T16:52:40;17.70;97.30
1075;DHT22;526;51.392;12.448;2022-10-30T16:55:11;17.60;97.30
1075;DHT22;526;51.392;12.448;2022-10-30T16:57:43;17.40;97.30
1075;DHT22;526;51.392;12.448;2022-10-30T17:00:27;17.30;97.30
1075;DHT22;526;51.392;12.448;2022-10-30T17:02:54;17.20;97.30
1075;DHT22;526;51.392;12.448;2022-10-30T17:05:26;17.20;97.30
1075;DHT22;526;51.392;12.448;2022-10-30T17:07:57;17.10;97.30
1075;DHT22;526;51.392;12.448;2022-10-30T17:10:44;17.00;97.30
1075;DHT22;526;51.392;12.448;2022-10-30T17:18:36;16.80;97.30
1075;DHT22;526;51.392;12.448;2022-10-30T17:21:09;16.70;97.30
1075;DHT22;526;51.392;12.448;2022-10-30T17:23:36;16.70;97.30
1075;DHT22;526;51.392;12.448;2022-10-30T17:26:09;16.70;97.30
1075;DHT22;526;51.392;12.448;2022-10-30T17:28:37;16.60;97.30
1075;DHT22;526;51.392;12.448;2022-10-30T17:36:35;16.40;97.30
1075;DHT22;526;51.392;12.448;2022-10-30T17:39:01;16.30;97.30
1075;DHT22;526;51.392;12.448;2022-10-30T17:41:27;16.30;97.30
1075;DHT22;526;51.392;12.448;2022-10-30T17:43:54;16.20;97.30
1075;DHT22;526;51.392;12.448;2022-10-30T17:46:20;16.10;97.30
1075;DHT22;526;51.392;12.448;2022-10-30T17:48:46;16.10;97.30
1075;DHT22;526;51.392;12.448;2022-10-30T17:51:15;16.00;97.30
1075;DHT22;526;51.392;12.448;2022-10-30T17:53:40;16.00;97.30
1075;DHT22;526;51.392;12.448;2022-10-30T17:56:15;15.90;97.30
1075;DHT22;526;51.392;12.448;2022-10-30T17:58:41;15.80;97.30
1075;DHT22;526;51.392;12.448;2022-10-30T18:01:14;15.80;97.30
1075;DHT22;526;51.392;12.448;2022-10-30T18:03:40;15.70;97.30
1075;DHT22;526;51.392;12.448;2022-10-30T18:06:09;15.60;97.30
1075;DHT22;526;51.392;12.448;2022-10-30T18:08:39;15.60;97.30
1075;DHT22;526;51.392;12.448;2022-10-30T18:11:04;15.50;97.30
1075;DHT22;526;51.392;12.448;2022-10-30T18:13:30;15.50;97.30
1075;DHT22;526;51.392;12.448;2022-10-30T18:15:57;15.50;97.30
1075;DHT22;526;51.392;12.448;2022-10-30T18:18:22;15.40;97.30
1075;DHT22;526;51.392;12.448;2022-10-30T18:20:48;15.40;97.30
1075;DHT22;526;51.392;12.448;2022-10-30T18:23:21;15.40;97.30
1075;DHT22;526;51.392;12.448;2022-10-30T18:25:48;15.30;97.30
1075;DHT22;526;51.392;12.448;2022-10-30T18:28:14;15.30;97.30
1075;DHT22;526;51.392;12.448;2022-10-30T18:30:40;15.20;97.30
1075;DHT22;526;51.392;12.448;2022-10-30T18:33:09;15.20;97.30
1075;DHT22;526;51.392;12.448;2022-10-30T18:35:36;15.10;97.30
1075;DHT22;526;51.392;12.448;2022-10-30T18:38:04;15.10;97.30
1075;DHT22;526;51.392;12.448;2022-10-30T18:40:30;15.00;97.30
1075;DHT22;526;51.392;12.448;2022-10-30T18:42:56;15.00;97.30
1075;DHT22;526;51.392;12.448;2022-10-30T18:45:40;15.00;97.30